Portada
METAR-TAF:

METAR-TAF

Aeroports :

Pskov, Rússia

latitud: 57-47-06N, longitud: 028-23-54E, altitud: 47 m

Observació

L'informe es va fer fa 58 minuts, a les 23:00 UTC
Vent 4 kt del Nord
Temperatura 11°C
Humitat 87%
Pressió 1021 hPa
Visibilitat 10 km o més

METAR: ULOO 112300Z AUTO 36002MPS 9999 // 11/09 Q1021 RMK QFE762

Hora: 02:58 (23:58 UTC)

Pronòstic

L'informe es va fer fa 1 hora i 4 minuts, a les 22:54 UTC
Pronòstic vàlid del 12 a les 00 UTC al 12 a les 09 UTC
Vent 6 kt del Nord/Nord-Oest
Visibilitat 10 km o més
Cel ennuvolat a una alçada de 3000 ft
Temporalment
l' 12 a les 04 UTC al 12 a les 09 UTC
Vent 10 kt del Nord amb ràfegues de 19 kt

TAF: ULOO 112254Z 1200/1209 34003MPS 9999 BKN030 TEMPO 1204/1209 01005G10MPS

Observacions i pronòstics meteorològics de més de 4000 aeroports (METAR i TAF).

Les estacions disponibles són els punts grocs i vermells al mapa.

Posi el ratolí al punt desitjat per veure el nom de l'estació.

Feu clic per veure les observacions i els pronòstics meteorològics.

Per canviar el mapa: feu clic els botons verds amb una creu de color negre per apropar; al botó verd amb un guió per allunyar la imatge; o en les fletxes verdes per a mapes adjacents.


METAR-TAF: